sensor_id;sensor_type;location;lat;lon;timestamp;P1;durP1;ratioP1;P2;durP2;ratioP2
10144;SDS011;5113;41.822;23.564;2022-10-17T00:00:22;5.47;;;4.80;;
10144;SDS011;5113;41.822;23.564;2022-10-17T00:03:31;4.83;;;4.23;;
10144;SDS011;5113;41.822;23.564;2022-10-17T00:06:38;4.17;;;3.53;;
10144;SDS011;5113;41.822;23.564;2022-10-17T00:09:44;6.87;;;4.60;;
10144;SDS011;5113;41.822;23.564;2022-10-17T00:12:50;5.53;;;4.23;;
10144;SDS011;5113;41.822;23.564;2022-10-17T00:15:57;86.97;;;30.97;;
10144;SDS011;5113;41.822;23.564;2022-10-17T00:19:05;28.90;;;14.03;;
10144;SDS011;5113;41.822;23.564;2022-10-17T00:22:11;13.47;;;10.80;;
10144;SDS011;5113;41.822;23.564;2022-10-17T00:25:18;9.17;;;6.83;;
10144;SDS011;5113;41.822;23.564;2022-10-17T00:28:24;13.60;;;7.03;;
10144;SDS011;5113;41.822;23.564;2022-10-17T00:31:30;6.57;;;5.97;;
10144;SDS011;5113;41.822;23.564;2022-10-17T00:34:37;5.40;;;3.97;;
10144;SDS011;5113;41.822;23.564;2022-10-17T00:37:43;4.57;;;4.17;;
10144;SDS011;5113;41.822;23.564;2022-10-17T00:40:50;7.37;;;3.77;;
10144;SDS011;5113;41.822;23.564;2022-10-17T00:43:56;10.10;;;4.27;;
10144;SDS011;5113;41.822;23.564;2022-10-17T00:47:07;4.07;;;3.77;;
10144;SDS011;5113;41.822;23.564;2022-10-17T00:50:18;4.73;;;3.80;;
10144;SDS011;5113;41.822;23.564;2022-10-17T00:53:25;6.37;;;4.50;;
10144;SDS011;5113;41.822;23.564;2022-10-17T00:56:31;11.87;;;4.47;;
10144;SDS011;5113;41.822;23.564;2022-10-17T00:59:38;3.70;;;3.40;;
10144;SDS011;5113;41.822;23.564;2022-10-17T01:02:47;6.13;;;3.33;;
10144;SDS011;5113;41.822;23.564;2022-10-17T01:05:54;145.90;;;46.17;;
10144;SDS011;5113;41.822;23.564;2022-10-17T01:09:01;52.23;;;18.97;;
10144;SDS011;5113;41.822;23.564;2022-10-17T01:12:10;15.93;;;10.17;;
10144;SDS011;5113;41.822;23.564;2022-10-17T01:15:26;9.83;;;7.50;;
10144;SDS011;5113;41.822;23.564;2022-10-17T01:18:45;8.47;;;6.43;;
10144;SDS011;5113;41.822;23.564;2022-10-17T01:22:02;7.37;;;5.13;;
10144;SDS011;5113;41.822;23.564;2022-10-17T01:25:22;5.47;;;4.50;;
10144;SDS011;5113;41.822;23.564;2022-10-17T01:28:42;6.37;;;4.13;;
10144;SDS011;5113;41.822;23.564;2022-10-17T01:32:11;4.60;;;4.20;;
10144;SDS011;5113;41.822;23.564;2022-10-17T01:35:21;8.00;;;4.43;;
10144;SDS011;5113;41.822;23.564;2022-10-17T01:38:33;5.87;;;4.77;;
10144;SDS011;5113;41.822;23.564;2022-10-17T01:41:43;4.33;;;3.93;;
10144;SDS011;5113;41.822;23.564;2022-10-17T01:44:54;3.80;;;3.50;;
10144;SDS011;5113;41.822;23.564;2022-10-17T01:48:08;4.13;;;3.70;;
10144;SDS011;5113;41.822;23.564;2022-10-17T01:51:20;4.60;;;3.90;;
10144;SDS011;5113;41.822;23.564;2022-10-17T01:54:31;4.10;;;3.70;;
10144;SDS011;5113;41.822;23.564;2022-10-17T01:57:45;6.07;;;4.00;;
10144;SDS011;5113;41.822;23.564;2022-10-17T02:00:54;3.70;;;3.33;;
10144;SDS011;5113;41.822;23.564;2022-10-17T02:04:04;5.33;;;3.83;;
10144;SDS011;5113;41.822;23.564;2022-10-17T02:07:14;5.63;;;4.70;;
10144;SDS011;5113;41.822;23.564;2022-10-17T02:10:24;7.30;;;6.70;;
10144;SDS011;5113;41.822;23.564;2022-10-17T02:13:39;4.03;;;3.70;;
10144;SDS011;5113;41.822;23.564;2022-10-17T02:17:03;5.17;;;4.33;;
10144;SDS011;5113;41.822;23.564;2022-10-17T02:20:20;10.10;;;5.27;;
10144;SDS011;5113;41.822;23.564;2022-10-17T02:23:30;6.80;;;5.70;;
10144;SDS011;5113;41.822;23.564;2022-10-17T02:26:43;4.27;;;3.77;;
10144;SDS011;5113;41.822;23.564;2022-10-17T02:29:57;3.30;;;3.00;;
10144;SDS011;5113;41.822;23.564;2022-10-17T02:33:11;10.07;;;3.97;;
10144;SDS011;5113;41.822;23.564;2022-10-17T02:36:23;4.63;;;3.80;;
10144;SDS011;5113;41.822;23.564;2022-10-17T02:39:34;3.93;;;3.17;;
10144;SDS011;5113;41.822;23.564;2022-10-17T02:42:42;4.73;;;3.37;;
10144;SDS011;5113;41.822;23.564;2022-10-17T02:45:50;15.47;;;10.77;;
10144;SDS011;5113;41.822;23.564;2022-10-17T02:48:57;13.23;;;9.97;;
10144;SDS011;5113;41.822;23.564;2022-10-17T02:52:10;9.40;;;5.87;;
10144;SDS011;5113;41.822;23.564;2022-10-17T02:55:20;4.20;;;3.63;;
10144;SDS011;5113;41.822;23.564;2022-10-17T02:58:31;4.43;;;4.03;;
10144;SDS011;5113;41.822;23.564;2022-10-17T03:01:40;6.77;;;4.67;;
10144;SDS011;5113;41.822;23.564;2022-10-17T03:04:47;5.37;;;4.80;;
10144;SDS011;5113;41.822;23.564;2022-10-17T03:07:55;10.30;;;7.00;;
10144;SDS011;5113;41.822;23.564;2022-10-17T03:11:01;5.87;;;4.97;;
10144;SDS011;5113;41.822;23.564;2022-10-17T03:14:08;19.37;;;13.40;;
10144;SDS011;5113;41.822;23.564;2022-10-17T03:17:14;16.60;;;9.17;;
10144;SDS011;5113;41.822;23.564;2022-10-17T03:20:20;11.60;;;6.33;;
10144;SDS011;5113;41.822;23.564;2022-10-17T03:23:28;19.90;;;14.30;;
10144;SDS011;5113;41.822;23.564;2022-10-17T03:26:34;24.70;;;11.77;;
10144;SDS011;5113;41.822;23.564;2022-10-17T03:29:41;31.53;;;18.10;;
10144;SDS011;5113;41.822;23.564;2022-10-17T03:32:47;24.70;;;16.57;;
10144;SDS011;5113;41.822;23.564;2022-10-17T03:35:53;12.80;;;8.97;;
10144;SDS011;5113;41.822;23.564;2022-10-17T03:39:00;16.90;;;7.80;;
10144;SDS011;5113;41.822;23.564;2022-10-17T03:42:06;20.33;;;9.40;;
10144;SDS011;5113;41.822;23.564;2022-10-17T03:45:13;19.60;;;10.70;;
10144;SDS011;5113;41.822;23.564;2022-10-17T03:48:19;20.80;;;11.43;;
10144;SDS011;5113;41.822;23.564;2022-10-17T03:51:25;14.23;;;7.97;;
10144;SDS011;5113;41.822;23.564;2022-10-17T03:54:33;9.00;;;6.27;;
10144;SDS011;5113;41.822;23.564;2022-10-17T03:57:38;23.73;;;11.53;;
10144;SDS011;5113;41.822;23.564;2022-10-17T04:00:48;8.93;;;6.93;;
10144;SDS011;5113;41.822;23.564;2022-10-17T04:03:55;6.13;;;5.50;;
10144;SDS011;5113;41.822;23.564;2022-10-17T04:07:01;5.73;;;5.17;;
10144;SDS011;5113;41.822;23.564;2022-10-17T04:10:09;7.53;;;6.83;;
10144;SDS011;5113;41.822;23.564;2022-10-17T04:13:16;6.80;;;6.13;;
10144;SDS011;5113;41.822;23.564;2022-10-17T04:16:22;6.37;;;5.77;;
10144;SDS011;5113;41.822;23.564;2022-10-17T04:19:29;6.50;;;5.20;;
10144;SDS011;5113;41.822;23.564;2022-10-17T04:22:35;4.80;;;4.43;;
10144;SDS011;5113;41.822;23.564;2022-10-17T04:25:43;7.77;;;5.07;;
10144;SDS011;5113;41.822;23.564;2022-10-17T04:28:49;15.67;;;8.73;;
10144;SDS011;5113;41.822;23.564;2022-10-17T04:31:55;16.60;;;11.17;;
10144;SDS011;5113;41.822;23.564;2022-10-17T04:35:02;10.87;;;7.67;;
10144;SDS011;5113;41.822;23.564;2022-10-17T04:38:08;7.97;;;5.20;;
10144;SDS011;5113;41.822;23.564;2022-10-17T04:41:16;6.60;;;5.03;;
10144;SDS011;5113;41.822;23.564;2022-10-17T04:44:23;21.67;;;13.03;;
10144;SDS011;5113;41.822;23.564;2022-10-17T04:47:29;26.57;;;15.77;;
10144;SDS011;5113;41.822;23.564;2022-10-17T04:50:35;23.50;;;13.93;;
10144;SDS011;5113;41.822;23.564;2022-10-17T04:53:41;26.23;;;14.20;;
10144;SDS011;5113;41.822;23.564;2022-10-17T04:56:49;24.70;;;14.50;;
10144;SDS011;5113;41.822;23.564;2022-10-17T04:59:55;20.17;;;13.17;;
10144;SDS011;5113;41.822;23.564;2022-10-17T05:03:02;14.67;;;10.30;;
10144;SDS011;5113;41.822;23.564;2022-10-17T05:06:10;30.53;;;12.97;;
10144;SDS011;5113;41.822;23.564;2022-10-17T05:09:17;32.03;;;21.63;;
10144;SDS011;5113;41.822;23.564;2022-10-17T05:12:25;15.67;;;11.27;;
10144;SDS011;5113;41.822;23.564;2022-10-17T05:15:31;19.03;;;8.27;;
10144;SDS011;5113;41.822;23.564;2022-10-17T05:18:38;12.97;;;8.80;;
10144;SDS011;5113;41.822;23.564;2022-10-17T05:21:44;7.80;;;6.47;;
10144;SDS011;5113;41.822;23.564;2022-10-17T05:24:50;13.50;;;7.17;;
10144;SDS011;5113;41.822;23.564;2022-10-17T05:27:58;13.47;;;9.30;;
10144;SDS011;5113;41.822;23.564;2022-10-17T05:31:04;13.50;;;9.93;;
10144;SDS011;5113;41.822;23.564;2022-10-17T05:34:11;14.07;;;9.33;;
10144;SDS011;5113;41.822;23.564;2022-10-17T05:37:17;12.10;;;9.07;;
10144;SDS011;5113;41.822;23.564;2022-10-17T05:40:24;17.07;;;9.40;;
10144;SDS011;5113;41.822;23.564;2022-10-17T05:43:32;16.20;;;8.73;;
10144;SDS011;5113;41.822;23.564;2022-10-17T05:46:38;15.60;;;9.63;;
10144;SDS011;5113;41.822;23.564;2022-10-17T05:49:44;16.70;;;11.93;;
10144;SDS011;5113;41.822;23.564;2022-10-17T05:52:56;22.33;;;12.27;;
10144;SDS011;5113;41.822;23.564;2022-10-17T05:56:02;17.27;;;9.63;;
10144;SDS011;5113;41.822;23.564;2022-10-17T05:59:15;9.73;;;7.17;;
10144;SDS011;5113;41.822;23.564;2022-10-17T06:02:21;10.33;;;7.63;;
10144;SDS011;5113;41.822;23.564;2022-10-17T06:05:27;30.33;;;15.73;;
10144;SDS011;5113;41.822;23.564;2022-10-17T06:08:33;40.17;;;19.23;;
10144;SDS011;5113;41.822;23.564;2022-10-17T06:11:39;40.70;;;21.73;;
10144;SDS011;5113;41.822;23.564;2022-10-17T06:14:47;62.63;;;28.23;;
10144;SDS011;5113;41.822;23.564;2022-10-17T06:17:53;57.10;;;25.37;;
10144;SDS011;5113;41.822;23.564;2022-10-17T06:21:03;55.53;;;26.60;;
10144;SDS011;5113;41.822;23.564;2022-10-17T06:24:11;53.90;;;28.43;;
10144;SDS011;5113;41.822;23.564;2022-10-17T06:27:17;42.63;;;21.43;;
10144;SDS011;5113;41.822;23.564;2022-10-17T06:30:25;33.03;;;16.23;;
10144;SDS011;5113;41.822;23.564;2022-10-17T06:33:31;16.33;;;10.80;;
10144;SDS011;5113;41.822;23.564;2022-10-17T06:36:38;21.40;;;13.93;;
10144;SDS011;5113;41.822;23.564;2022-10-17T06:39:44;19.07;;;10.07;;
10144;SDS011;5113;41.822;23.564;2022-10-17T06:42:50;12.60;;;8.20;;
10144;SDS011;5113;41.822;23.564;2022-10-17T06:45:58;37.53;;;14.43;;
10144;SDS011;5113;41.822;23.564;2022-10-17T06:49:04;19.13;;;9.40;;
10144;SDS011;5113;41.822;23.564;2022-10-17T06:52:10;9.13;;;6.93;;
10144;SDS011;5113;41.822;23.564;2022-10-17T06:55:18;12.07;;;6.87;;
10144;SDS011;5113;41.822;23.564;2022-10-17T06:58:27;8.70;;;6.57;;
10144;SDS011;5113;41.822;23.564;2022-10-17T07:01:34;16.90;;;10.00;;
10144;SDS011;5113;41.822;23.564;2022-10-17T07:04:44;15.37;;;10.00;;
10144;SDS011;5113;41.822;23.564;2022-10-17T07:07:50;12.47;;;7.07;;
10144;SDS011;5113;41.822;23.564;2022-10-17T07:10:56;8.10;;;6.77;;
10144;SDS011;5113;41.822;23.564;2022-10-17T07:14:02;6.63;;;5.27;;
10144;SDS011;5113;41.822;23.564;2022-10-17T07:17:10;9.23;;;6.33;;
10144;SDS011;5113;41.822;23.564;2022-10-17T07:20:16;6.60;;;5.77;;
10144;SDS011;5113;41.822;23.564;2022-10-17T07:23:23;12.83;;;7.77;;
10144;SDS011;5113;41.822;23.564;2022-10-17T07:26:29;12.03;;;7.87;;
10144;SDS011;5113;41.822;23.564;2022-10-17T07:29:36;8.90;;;7.07;;
10144;SDS011;5113;41.822;23.564;2022-10-17T07:32:43;13.17;;;8.33;;
10144;SDS011;5113;41.822;23.564;2022-10-17T07:35:50;13.47;;;6.20;;
10144;SDS011;5113;41.822;23.564;2022-10-17T07:38:56;8.67;;;6.57;;
10144;SDS011;5113;41.822;23.564;2022-10-17T07:42:03;6.43;;;5.33;;
10144;SDS011;5113;41.822;23.564;2022-10-17T07:45:11;9.10;;;6.17;;
10144;SDS011;5113;41.822;23.564;2022-10-17T07:48:19;9.43;;;6.50;;
10144;SDS011;5113;41.822;23.564;2022-10-17T07:51:27;14.97;;;6.57;;
10144;SDS011;5113;41.822;23.564;2022-10-17T07:54:33;8.93;;;6.33;;
10144;SDS011;5113;41.822;23.564;2022-10-17T07:57:39;14.33;;;7.67;;
10144;SDS011;5113;41.822;23.564;2022-10-17T08:00:45;8.77;;;7.10;;
10144;SDS011;5113;41.822;23.564;2022-10-17T08:03:56;8.57;;;6.10;;
10144;SDS011;5113;41.822;23.564;2022-10-17T08:07:02;7.20;;;6.07;;
10144;SDS011;5113;41.822;23.564;2022-10-17T08:10:24;7.23;;;5.67;;
10144;SDS011;5113;41.822;23.564;2022-10-17T08:13:33;10.40;;;7.40;;
10144;SDS011;5113;41.822;23.564;2022-10-17T08:16:39;13.07;;;6.73;;
10144;SDS011;5113;41.822;23.564;2022-10-17T08:19:46;7.47;;;6.23;;
10144;SDS011;5113;41.822;23.564;2022-10-17T08:22:53;5.93;;;5.13;;
10144;SDS011;5113;41.822;23.564;2022-10-17T08:25:59;9.27;;;5.60;;
10144;SDS011;5113;41.822;23.564;2022-10-17T08:29:10;5.90;;;4.90;;
10144;SDS011;5113;41.822;23.564;2022-10-17T08:32:17;5.07;;;4.00;;
10144;SDS011;5113;41.822;23.564;2022-10-17T08:35:25;28.30;;;10.70;;
10144;SDS011;5113;41.822;23.564;2022-10-17T08:38:32;17.97;;;8.47;;
10144;SDS011;5113;41.822;23.564;2022-10-17T08:41:48;10.13;;;6.37;;
10144;SDS011;5113;41.822;23.564;2022-10-17T08:45:05;33.17;;;13.97;;
10144;SDS011;5113;41.822;23.564;2022-10-17T08:48:22;29.90;;;12.00;;
10144;SDS011;5113;41.822;23.564;2022-10-17T08:51:32;15.43;;;8.03;;
10144;SDS011;5113;41.822;23.564;2022-10-17T08:54:42;6.17;;;4.73;;
10144;SDS011;5113;41.822;23.564;2022-10-17T08:57:50;7.97;;;5.67;;
10144;SDS011;5113;41.822;23.564;2022-10-17T09:01:00;4.47;;;4.13;;
10144;SDS011;5113;41.822;23.564;2022-10-17T09:07:51;10.10;;;6.17;;
10144;SDS011;5113;41.822;23.564;2022-10-17T09:11:06;14.73;;;8.67;;
10144;SDS011;5113;41.822;23.564;2022-10-17T09:14:30;16.00;;;7.47;;
10144;SDS011;5113;41.822;23.564;2022-10-17T09:17:55;12.93;;;8.37;;
10144;SDS011;5113;41.822;23.564;2022-10-17T09:21:09;15.47;;;5.53;;
10144;SDS011;5113;41.822;23.564;2022-10-17T09:24:27;6.47;;;4.77;;
10144;SDS011;5113;41.822;23.564;2022-10-17T09:27:43;5.43;;;3.83;;
10144;SDS011;5113;41.822;23.564;2022-10-17T09:30:54;11.20;;;7.33;;
10144;SDS011;5113;41.822;23.564;2022-10-17T09:34:03;6.40;;;3.60;;
10144;SDS011;5113;41.822;23.564;2022-10-17T09:37:11;3.70;;;3.27;;
10144;SDS011;5113;41.822;23.564;2022-10-17T09:40:24;3.07;;;2.40;;
10144;SDS011;5113;41.822;23.564;2022-10-17T09:43:36;3.40;;;3.10;;
10144;SDS011;5113;41.822;23.564;2022-10-17T09:46:46;3.10;;;2.80;;
10144;SDS011;5113;41.822;23.564;2022-10-17T09:50:12;6.57;;;4.97;;
10144;SDS011;5113;41.822;23.564;2022-10-17T09:53:26;4.50;;;4.10;;
10144;SDS011;5113;41.822;23.564;2022-10-17T10:00:06;2.90;;;2.70;;
10144;SDS011;5113;41.822;23.564;2022-10-17T10:03:24;4.00;;;2.50;;
10144;SDS011;5113;41.822;23.564;2022-10-17T10:06:31;1.97;;;1.87;;
10144;SDS011;5113;41.822;23.564;2022-10-17T10:09:37;1.97;;;1.87;;
10144;SDS011;5113;41.822;23.564;2022-10-17T10:12:46;2.30;;;2.10;;
10144;SDS011;5113;41.822;23.564;2022-10-17T10:16:15;3.17;;;1.93;;
10144;SDS011;5113;41.822;23.564;2022-10-17T10:19:27;2.03;;;1.93;;
10144;SDS011;5113;41.822;23.564;2022-10-17T10:22:34;5.37;;;1.80;;
10144;SDS011;5113;41.822;23.564;2022-10-17T10:25:51;1.80;;;1.70;;
10144;SDS011;5113;41.822;23.564;2022-10-17T10:32:28;3.10;;;2.80;;
10144;SDS011;5113;41.822;23.564;2022-10-17T10:35:54;2.43;;;2.30;;
10144;SDS011;5113;41.822;23.564;2022-10-17T10:39:02;5.07;;;3.93;;
10144;SDS011;5113;41.822;23.564;2022-10-17T10:42:17;4.20;;;3.83;;
10144;SDS011;5113;41.822;23.564;2022-10-17T10:45:28;3.00;;;2.80;;
10144;SDS011;5113;41.822;23.564;2022-10-17T10:48:53;2.23;;;2.13;;
10144;SDS011;5113;41.822;23.564;2022-10-17T10:52:03;2.67;;;2.03;;
10144;SDS011;5113;41.822;23.564;2022-10-17T10:55:17;2.53;;;2.43;;
10144;SDS011;5113;41.822;23.564;2022-10-17T10:58:33;2.00;;;1.90;;
10144;SDS011;5113;41.822;23.564;2022-10-17T11:01:49;5.50;;;4.50;;
10144;SDS011;5113;41.822;23.564;2022-10-17T11:05:02;62.73;;;31.00;;
10144;SDS011;5113;41.822;23.564;2022-10-17T11:08:14;22.83;;;12.83;;
10144;SDS011;5113;41.822;23.564;2022-10-17T11:11:28;5.40;;;4.20;;
10144;SDS011;5113;41.822;23.564;2022-10-17T11:14:43;2.60;;;2.40;;
10144;SDS011;5113;41.822;23.564;2022-10-17T11:17:56;2.00;;;1.90;;
10144;SDS011;5113;41.822;23.564;2022-10-17T11:21:08;3.37;;;2.70;;
10144;SDS011;5113;41.822;23.564;2022-10-17T11:24:20;2.83;;;2.60;;
10144;SDS011;5113;41.822;23.564;2022-10-17T11:27:29;2.80;;;2.60;;
10144;SDS011;5113;41.822;23.564;2022-10-17T11:30:39;1.80;;;1.70;;
10144;SDS011;5113;41.822;23.564;2022-10-17T11:33:53;2.90;;;2.17;;
10144;SDS011;5113;41.822;23.564;2022-10-17T11:37:03;2.30;;;2.20;;
10144;SDS011;5113;41.822;23.564;2022-10-17T11:40:14;3.77;;;2.40;;
10144;SDS011;5113;41.822;23.564;2022-10-17T11:43:28;2.13;;;1.97;;
10144;SDS011;5113;41.822;23.564;2022-10-17T11:46:37;1.67;;;1.57;;
10144;SDS011;5113;41.822;23.564;2022-10-17T11:49:49;1.90;;;1.80;;
10144;SDS011;5113;41.822;23.564;2022-10-17T11:53:01;1.63;;;1.60;;
10144;SDS011;5113;41.822;23.564;2022-10-17T11:56:09;4.13;;;3.73;;
10144;SDS011;5113;41.822;23.564;2022-10-17T11:59:23;3.53;;;2.70;;
10144;SDS011;5113;41.822;23.564;2022-10-17T12:02:52;2.43;;;2.23;;
10144;SDS011;5113;41.822;23.564;2022-10-17T12:06:12;2.27;;;2.07;;
10144;SDS011;5113;41.822;23.564;2022-10-17T12:09:24;1.73;;;1.63;;
10144;SDS011;5113;41.822;23.564;2022-10-17T12:12:40;1.50;;;1.40;;
10144;SDS011;5113;41.822;23.564;2022-10-17T12:15:46;2.00;;;1.90;;
10144;SDS011;5113;41.822;23.564;2022-10-17T12:19:18;2.00;;;1.90;;
10144;SDS011;5113;41.822;23.564;2022-10-17T12:22:33;2.43;;;2.10;;
10144;SDS011;5113;41.822;23.564;2022-10-17T12:25:47;1.80;;;1.70;;
10144;SDS011;5113;41.822;23.564;2022-10-17T12:28:54;1.83;;;1.73;;
10144;SDS011;5113;41.822;23.564;2022-10-17T12:32:08;2.30;;;2.20;;
10144;SDS011;5113;41.822;23.564;2022-10-17T12:35:17;2.13;;;1.60;;
10144;SDS011;5113;41.822;23.564;2022-10-17T12:38:28;1.90;;;1.80;;
10144;SDS011;5113;41.822;23.564;2022-10-17T12:41:52;2.57;;;1.80;;
10144;SDS011;5113;41.822;23.564;2022-10-17T12:44:58;4.40;;;2.90;;
10144;SDS011;5113;41.822;23.564;2022-10-17T12:48:07;2.27;;;2.07;;
10144;SDS011;5113;41.822;23.564;2022-10-17T12:51:14;1.80;;;1.70;;
10144;SDS011;5113;41.822;23.564;2022-10-17T12:54:44;2.00;;;1.70;;
10144;SDS011;5113;41.822;23.564;2022-10-17T12:58:13;1.90;;;1.80;;
10144;SDS011;5113;41.822;23.564;2022-10-17T13:01:21;4.33;;;1.73;;
10144;SDS011;5113;41.822;23.564;2022-10-17T13:04:33;2.30;;;2.20;;
10144;SDS011;5113;41.822;23.564;2022-10-17T13:07:42;2.97;;;1.97;;
10144;SDS011;5113;41.822;23.564;2022-10-17T13:10:51;2.13;;;2.03;;
10144;SDS011;5113;41.822;23.564;2022-10-17T13:13:59;2.07;;;1.97;;
10144;SDS011;5113;41.822;23.564;2022-10-17T13:17:17;2.60;;;2.40;;
10144;SDS011;5113;41.822;23.564;2022-10-17T13:20:27;2.50;;;1.90;;
10144;SDS011;5113;41.822;23.564;2022-10-17T13:23:35;3.27;;;2.00;;
10144;SDS011;5113;41.822;23.564;2022-10-17T13:26:44;1.87;;;1.77;;
10144;SDS011;5113;41.822;23.564;2022-10-17T13:29:51;3.03;;;2.83;;
10144;SDS011;5113;41.822;23.564;2022-10-17T13:32:59;3.13;;;2.80;;
10144;SDS011;5113;41.822;23.564;2022-10-17T13:36:06;2.30;;;2.20;;
10144;SDS011;5113;41.822;23.564;2022-10-17T13:39:19;2.77;;;2.57;;
10144;SDS011;5113;41.822;23.564;2022-10-17T13:42:49;3.43;;;2.83;;
10144;SDS011;5113;41.822;23.564;2022-10-17T13:45:58;2.30;;;2.20;;
10144;SDS011;5113;41.822;23.564;2022-10-17T13:49:30;2.13;;;2.03;;
10144;SDS011;5113;41.822;23.564;2022-10-17T13:52:38;4.70;;;3.20;;
10144;SDS011;5113;41.822;23.564;2022-10-17T13:55:55;2.73;;;2.53;;
10144;SDS011;5113;41.822;23.564;2022-10-17T13:59:26;2.03;;;1.93;;
10144;SDS011;5113;41.822;23.564;2022-10-17T14:02:35;2.00;;;1.73;;
10144;SDS011;5113;41.822;23.564;2022-10-17T14:05:58;1.73;;;1.70;;
10144;SDS011;5113;41.822;23.564;2022-10-17T14:09:16;2.00;;;1.90;;
10144;SDS011;5113;41.822;23.564;2022-10-17T14:12:25;2.53;;;2.30;;
10144;SDS011;5113;41.822;23.564;2022-10-17T14:15:34;1.50;;;1.50;;
10144;SDS011;5113;41.822;23.564;2022-10-17T14:18:44;1.97;;;1.80;;
10144;SDS011;5113;41.822;23.564;2022-10-17T14:21:53;3.30;;;2.37;;
10144;SDS011;5113;41.822;23.564;2022-10-17T14:25:00;2.83;;;2.10;;
10144;SDS011;5113;41.822;23.564;2022-10-17T14:28:11;4.53;;;3.45;;
10144;SDS011;5113;41.822;23.564;2022-10-17T14:31:24;3.40;;;3.13;;
10144;SDS011;5113;41.822;23.564;2022-10-17T14:34:36;2.42;;;2.22;;
10144;SDS011;5113;41.822;23.564;2022-10-17T14:37:45;2.30;;;2.20;;
10144;SDS011;5113;41.822;23.564;2022-10-17T14:40:55;2.35;;;2.15;;
10144;SDS011;5113;41.822;23.564;2022-10-17T14:44:26;2.45;;;2.00;;
10144;SDS011;5113;41.822;23.564;2022-10-17T14:47:36;2.30;;;2.10;;
10144;SDS011;5113;41.822;23.564;2022-10-17T14:54:17;3.13;;;2.93;;
10144;SDS011;5113;41.822;23.564;2022-10-17T14:57:27;2.30;;;2.20;;
10144;SDS011;5113;41.822;23.564;2022-10-17T15:00:45;2.83;;;2.43;;
10144;SDS011;5113;41.822;23.564;2022-10-17T15:03:52;3.47;;;3.10;;
10144;SDS011;5113;41.822;23.564;2022-10-17T15:06:58;3.47;;;3.17;;
10144;SDS011;5113;41.822;23.564;2022-10-17T15:10:05;27.17;;;13.10;;
10144;SDS011;5113;41.822;23.564;2022-10-17T15:13:12;22.97;;;11.63;;
10144;SDS011;5113;41.822;23.564;2022-10-17T15:16:32;15.30;;;10.27;;
10144;SDS011;5113;41.822;23.564;2022-10-17T15:19:41;33.23;;;19.83;;
10144;SDS011;5113;41.822;23.564;2022-10-17T15:22:47;51.43;;;26.63;;
10144;SDS011;5113;41.822;23.564;2022-10-17T15:25:54;54.60;;;28.10;;
10144;SDS011;5113;41.822;23.564;2022-10-17T15:29:00;45.37;;;24.37;;
10144;SDS011;5113;41.822;23.564;2022-10-17T15:32:06;41.20;;;22.23;;
10144;SDS011;5113;41.822;23.564;2022-10-17T15:35:14;53.93;;;29.43;;
10144;SDS011;5113;41.822;23.564;2022-10-17T15:38:21;52.30;;;24.97;;
10144;SDS011;5113;41.822;23.564;2022-10-17T15:41:28;99.40;;;54.53;;
10144;SDS011;5113;41.822;23.564;2022-10-17T15:44:36;115.43;;;55.03;;
10144;SDS011;5113;41.822;23.564;2022-10-17T15:47:48;178.27;;;68.30;;
10144;SDS011;5113;41.822;23.564;2022-10-17T15:50:56;233.70;;;86.97;;
10144;SDS011;5113;41.822;23.564;2022-10-17T15:54:02;160.27;;;67.83;;
10144;SDS011;5113;41.822;23.564;2022-10-17T15:57:11;196.87;;;59.60;;
10144;SDS011;5113;41.822;23.564;2022-10-17T16:00:22;170.40;;;61.03;;
10144;SDS011;5113;41.822;23.564;2022-10-17T16:03:29;189.13;;;69.53;;
10144;SDS011;5113;41.822;23.564;2022-10-17T16:06:36;185.50;;;73.07;;
10144;SDS011;5113;41.822;23.564;2022-10-17T16:09:43;170.37;;;63.23;;
10144;SDS011;5113;41.822;23.564;2022-10-17T16:12:49;141.67;;;56.53;;
10144;SDS011;5113;41.822;23.564;2022-10-17T16:15:55;104.10;;;42.83;;
10144;SDS011;5113;41.822;23.564;2022-10-17T16:19:01;60.23;;;25.03;;
10144;SDS011;5113;41.822;23.564;2022-10-17T16:22:14;46.27;;;22.33;;
10144;SDS011;5113;41.822;23.564;2022-10-17T16:25:25;43.97;;;22.67;;
10144;SDS011;5113;41.822;23.564;2022-10-17T16:28:33;49.77;;;24.63;;
10144;SDS011;5113;41.822;23.564;2022-10-17T16:31:40;60.50;;;32.33;;
10144;SDS011;5113;41.822;23.564;2022-10-17T16:34:48;49.23;;;25.20;;
10144;SDS011;5113;41.822;23.564;2022-10-17T16:37:55;65.83;;;32.23;;
10144;SDS011;5113;41.822;23.564;2022-10-17T16:41:01;67.23;;;37.00;;
10144;SDS011;5113;41.822;23.564;2022-10-17T16:44:09;49.43;;;26.20;;
10144;SDS011;5113;41.822;23.564;2022-10-17T16:47:18;61.80;;;28.30;;
10144;SDS011;5113;41.822;23.564;2022-10-17T16:50:24;106.93;;;50.60;;
10144;SDS011;5113;41.822;23.564;2022-10-17T16:53:32;106.03;;;52.50;;
10144;SDS011;5113;41.822;23.564;2022-10-17T16:56:38;105.30;;;47.63;;
10144;SDS011;5113;41.822;23.564;2022-10-17T16:59:45;124.40;;;47.67;;
10144;SDS011;5113;41.822;23.564;2022-10-17T17:02:51;155.67;;;66.27;;
10144;SDS011;5113;41.822;23.564;2022-10-17T17:05:57;131.87;;;58.73;;
10144;SDS011;5113;41.822;23.564;2022-10-17T17:09:05;110.10;;;51.17;;
10144;SDS011;5113;41.822;23.564;2022-10-17T17:12:12;130.13;;;48.60;;
10144;SDS011;5113;41.822;23.564;2022-10-17T17:15:18;108.97;;;44.27;;
10144;SDS011;5113;41.822;23.564;2022-10-17T17:18:24;104.73;;;46.93;;
10144;SDS011;5113;41.822;23.564;2022-10-17T17:21:30;178.87;;;58.70;;
10144;SDS011;5113;41.822;23.564;2022-10-17T17:24:38;108.37;;;43.50;;
10144;SDS011;5113;41.822;23.564;2022-10-17T17:27:44;115.03;;;38.77;;
10144;SDS011;5113;41.822;23.564;2022-10-17T17:30:51;135.73;;;48.23;;
10144;SDS011;5113;41.822;23.564;2022-10-17T17:33:57;140.17;;;50.07;;
10144;SDS011;5113;41.822;23.564;2022-10-17T17:37:03;166.83;;;65.93;;
10144;SDS011;5113;41.822;23.564;2022-10-17T17:40:11;205.83;;;76.60;;
10144;SDS011;5113;41.822;23.564;2022-10-17T17:43:18;230.83;;;87.47;;
10144;SDS011;5113;41.822;23.564;2022-10-17T17:46:24;202.07;;;74.33;;
10144;SDS011;5113;41.822;23.564;2022-10-17T17:49:30;178.80;;;65.77;;
10144;SDS011;5113;41.822;23.564;2022-10-17T17:52:37;141.17;;;50.83;;
10144;SDS011;5113;41.822;23.564;2022-10-17T17:55:47;100.77;;;37.27;;
10144;SDS011;5113;41.822;23.564;2022-10-17T17:58:53;107.67;;;35.30;;
10144;SDS011;5113;41.822;23.564;2022-10-17T18:02:01;138.13;;;52.67;;
10144;SDS011;5113;41.822;23.564;2022-10-17T18:05:09;106.73;;;41.17;;
10144;SDS011;5113;41.822;23.564;2022-10-17T18:08:16;103.07;;;38.03;;
10144;SDS011;5113;41.822;23.564;2022-10-17T18:11:23;106.53;;;40.20;;
10144;SDS011;5113;41.822;23.564;2022-10-17T18:14:30;59.33;;;26.20;;
10144;SDS011;5113;41.822;23.564;2022-10-17T18:17:37;40.20;;;19.97;;
10144;SDS011;5113;41.822;23.564;2022-10-17T18:20:43;29.43;;;15.53;;
10144;SDS011;5113;41.822;23.564;2022-10-17T18:23:49;15.73;;;10.23;;
10144;SDS011;5113;41.822;23.564;2022-10-17T18:26:57;43.40;;;22.83;;
10144;SDS011;5113;41.822;23.564;2022-10-17T18:30:04;59.93;;;30.27;;
10144;SDS011;5113;41.822;23.564;2022-10-17T18:33:11;25.27;;;15.27;;
10144;SDS011;5113;41.822;23.564;2022-10-17T18:36:18;26.43;;;15.37;;
10144;SDS011;5113;41.822;23.564;2022-10-17T18:39:24;29.27;;;14.10;;
10144;SDS011;5113;41.822;23.564;2022-10-17T18:42:32;42.83;;;20.03;;
10144;SDS011;5113;41.822;23.564;2022-10-17T18:45:38;38.27;;;20.33;;
10144;SDS011;5113;41.822;23.564;2022-10-17T18:48:45;40.07;;;24.23;;
10144;SDS011;5113;41.822;23.564;2022-10-17T18:51:52;24.50;;;14.87;;
10144;SDS011;5113;41.822;23.564;2022-10-17T18:54:59;27.27;;;15.67;;
10144;SDS011;5113;41.822;23.564;2022-10-17T18:58:07;22.00;;;15.40;;
10144;SDS011;5113;41.822;23.564;2022-10-17T19:01:14;26.43;;;20.43;;